createdAt,value
2023-03-18T00:02:20.307Z,8.60
2023-03-18T00:05:09.696Z,8.50
2023-03-18T00:07:57.232Z,8.80
2023-03-18T00:10:35.800Z,8.70
2023-03-18T00:13:07.317Z,8.70
2023-03-18T00:15:34.830Z,8.30
2023-03-18T00:18:11.236Z,7.80
2023-03-18T00:21:00.175Z,7.90
2023-03-18T00:23:39.019Z,7.50
2023-03-18T00:26:27.317Z,7.80
2023-03-18T00:28:59.085Z,7.10
2023-03-18T00:31:40.390Z,7.50
2023-03-18T00:34:08.473Z,7.20
2023-03-18T00:36:50.936Z,7.10
2023-03-18T00:39:21.816Z,7.80
2023-03-18T00:41:52.962Z,7.10
2023-03-18T00:44:20.274Z,7.10
2023-03-18T00:46:48.300Z,6.80
2023-03-18T00:49:38.085Z,7.30
2023-03-18T00:52:19.866Z,7.00
2023-03-18T00:54:47.790Z,6.80
2023-03-18T00:57:26.478Z,6.80
2023-03-18T00:59:53.990Z,6.60
2023-03-18T01:02:23.815Z,6.80
2023-03-18T01:04:55.265Z,6.70
2023-03-18T01:07:28.169Z,6.90
2023-03-18T01:09:57.570Z,6.40
2023-03-18T01:12:33.698Z,6.80
2023-03-18T01:15:01.425Z,7.10
2023-03-18T01:17:29.296Z,6.80
2023-03-18T01:19:58.842Z,6.60
2023-03-18T01:22:28.556Z,6.60
2023-03-18T01:24:57.765Z,6.60
2023-03-18T01:27:45.694Z,6.30
2023-03-18T01:30:24.030Z,5.90
2023-03-18T01:32:52.110Z,6.50
2023-03-18T01:35:41.370Z,6.20
2023-03-18T01:38:09.978Z,5.70
2023-03-18T01:40:40.605Z,6.20
2023-03-18T01:43:21.206Z,5.70
2023-03-18T01:46:36.209Z,6.20
2023-03-18T01:49:21.982Z,6.10
2023-03-18T01:54:26.796Z,5.80
2023-03-18T01:56:55.870Z,5.40
2023-03-18T01:59:45.724Z,5.50
2023-03-18T02:02:25.375Z,5.50
2023-03-18T02:04:59.552Z,5.90
2023-03-18T02:07:29.857Z,5.60
2023-03-18T02:10:12.195Z,5.80
2023-03-18T02:12:56.772Z,5.00
2023-03-18T02:15:50.671Z,5.90
2023-03-18T02:18:32.112Z,5.60
2023-03-18T02:21:17.334Z,5.40
2023-03-18T02:23:55.239Z,5.80
2023-03-18T02:26:28.184Z,5.90
2023-03-18T02:29:02.380Z,5.60
2023-03-18T02:31:31.288Z,5.70
2023-03-18T02:34:02.211Z,5.70
2023-03-18T02:36:31.289Z,5.50
2023-03-18T02:39:09.132Z,5.50
2023-03-18T02:41:39.627Z,5.50
2023-03-18T02:44:11.827Z,5.50
2023-03-18T02:47:05.299Z,5.40
2023-03-18T02:49:42.886Z,5.10
2023-03-18T02:52:16.076Z,6.00
2023-03-18T02:54:59.435Z,4.90
2023-03-18T02:57:29.510Z,5.20
2023-03-18T03:00:00.568Z,5.40
2023-03-18T03:02:30.476Z,5.40
2023-03-18T03:04:58.133Z,5.10
2023-03-18T03:07:46.848Z,5.20
2023-03-18T03:10:19.538Z,4.90
2023-03-18T03:12:47.692Z,5.70
2023-03-18T03:17:54.666Z,4.60
2023-03-18T03:20:25.290Z,4.70
2023-03-18T03:22:55.290Z,4.40
2023-03-18T03:25:27.296Z,4.50
2023-03-18T03:27:57.747Z,4.30
2023-03-18T03:30:28.301Z,4.60
2023-03-18T03:33:16.079Z,3.80
2023-03-18T03:35:48.498Z,4.10
2023-03-18T03:38:36.000Z,4.20
2023-03-18T03:41:06.629Z,4.00
2023-03-18T03:43:43.658Z,4.60
2023-03-18T03:46:15.595Z,4.20
2023-03-18T03:48:43.688Z,4.40
2023-03-18T03:51:13.183Z,4.70
2023-03-18T03:54:01.227Z,3.90
2023-03-18T03:56:43.561Z,4.50
2023-03-18T03:59:11.848Z,3.80
2023-03-18T04:02:05.061Z,4.30
2023-03-18T04:04:45.575Z,4.10
2023-03-18T04:07:21.744Z,4.40
2023-03-18T04:09:49.716Z,4.40
2023-03-18T04:12:22.319Z,4.80
2023-03-18T04:14:55.225Z,4.40
2023-03-18T04:17:23.070Z,4.20
2023-03-18T04:19:50.865Z,4.20
2023-03-18T04:22:18.873Z,4.20
2023-03-18T04:24:46.091Z,4.20
2023-03-18T04:27:13.845Z,4.60
2023-03-18T04:29:41.959Z,4.70
2023-03-18T04:32:09.576Z,4.10
2023-03-18T04:34:56.057Z,4.10
2023-03-18T04:37:25.578Z,4.90
2023-03-18T04:39:54.952Z,4.20
2023-03-18T04:42:25.014Z,4.20
2023-03-18T04:45:01.970Z,4.30
2023-03-18T04:47:29.964Z,4.10
2023-03-18T04:50:11.026Z,3.90
2023-03-18T04:52:58.663Z,4.30
2023-03-18T04:55:28.311Z,4.00
2023-03-18T04:57:58.943Z,4.10
2023-03-18T05:00:36.846Z,4.20
2023-03-18T05:03:15.670Z,3.40
2023-03-18T05:05:54.034Z,4.50
2023-03-18T05:08:26.329Z,4.10
2023-03-18T05:10:54.324Z,3.80
2023-03-18T05:13:22.173Z,4.00
2023-03-18T05:15:52.775Z,4.40
2023-03-18T05:18:20.375Z,4.40
2023-03-18T05:20:49.027Z,4.20
2023-03-18T05:23:16.858Z,3.90
2023-03-18T05:25:53.532Z,4.10
2023-03-18T05:28:22.665Z,4.10
2023-03-18T05:31:08.721Z,4.20
2023-03-18T05:33:38.784Z,4.10
2023-03-18T05:36:09.442Z,3.60
2023-03-18T05:38:41.578Z,4.00
2023-03-18T05:41:09.277Z,3.60
2023-03-18T05:43:39.073Z,3.90
2023-03-18T05:46:06.720Z,3.70
2023-03-18T05:49:00.035Z,3.50
2023-03-18T05:51:32.096Z,3.60
2023-03-18T05:54:02.359Z,3.90
2023-03-18T05:56:52.500Z,3.50
2023-03-18T05:59:20.400Z,3.40
2023-03-18T06:01:53.981Z,4.00
2023-03-18T06:04:21.496Z,3.70
2023-03-18T06:06:49.845Z,3.70
2023-03-18T06:09:17.784Z,3.70
2023-03-18T06:11:45.740Z,3.80
2023-03-18T06:14:13.082Z,3.60
2023-03-18T06:16:40.696Z,3.90
2023-03-18T06:19:08.269Z,3.40
2023-03-18T06:21:36.325Z,3.20
2023-03-18T06:24:04.631Z,4.00
2023-03-18T06:26:33.273Z,3.60
2023-03-18T06:29:02.437Z,3.40
2023-03-18T06:31:29.738Z,3.70
2023-03-18T06:33:56.920Z,3.80
2023-03-18T06:36:25.042Z,3.20
2023-03-18T06:38:52.671Z,3.80
2023-03-18T06:41:21.365Z,3.70
2023-03-18T06:44:09.194Z,4.10
2023-03-18T06:46:37.400Z,4.20
2023-03-18T06:49:04.965Z,4.20
2023-03-18T06:51:34.519Z,3.70
2023-03-18T06:54:02.290Z,3.50
2023-03-18T06:56:33.831Z,3.50
2023-03-18T06:59:11.216Z,3.60
2023-03-18T07:01:39.486Z,3.70
2023-03-18T07:04:08.409Z,3.70
2023-03-18T07:06:38.182Z,4.00
2023-03-18T07:09:05.316Z,3.50
2023-03-18T07:11:32.797Z,4.00
2023-03-18T07:14:04.383Z,3.30
2023-03-18T07:16:33.661Z,4.00
2023-03-18T07:19:02.122Z,3.60
2023-03-18T07:21:30.922Z,3.70
2023-03-18T07:23:58.396Z,4.10
2023-03-18T07:26:25.837Z,3.90
2023-03-18T07:28:53.213Z,3.70
2023-03-18T07:31:20.399Z,3.80
2023-03-18T07:33:47.720Z,3.40
2023-03-18T07:36:16.688Z,3.80
2023-03-18T07:38:44.153Z,3.80
2023-03-18T07:41:12.874Z,3.60
2023-03-18T07:43:40.343Z,3.90
2023-03-18T07:46:07.987Z,4.20
2023-03-18T07:48:35.407Z,3.80
2023-03-18T07:51:03.039Z,4.00
2023-03-18T07:53:30.346Z,3.50
2023-03-18T07:55:57.898Z,4.20
2023-03-18T07:58:25.976Z,4.30
2023-03-18T08:00:53.400Z,4.00
2023-03-18T08:03:20.775Z,4.00
2023-03-18T08:05:47.923Z,4.10
2023-03-18T08:08:15.891Z,3.90
2023-03-18T08:10:43.243Z,3.80
2023-03-18T08:13:10.832Z,3.90
2023-03-18T08:15:37.906Z,3.90
2023-03-18T08:18:07.056Z,3.80
2023-03-18T08:20:36.479Z,3.80
2023-03-18T08:23:04.097Z,3.10
2023-03-18T08:25:31.777Z,3.60
2023-03-18T08:27:59.794Z,3.50
2023-03-18T08:30:28.893Z,3.80
2023-03-18T08:32:57.501Z,3.90
2023-03-18T08:35:24.795Z,3.90
2023-03-18T08:37:52.426Z,3.70
2023-03-18T08:40:20.593Z,3.70
2023-03-18T08:42:48.292Z,4.00
2023-03-18T08:45:17.167Z,3.80
2023-03-18T08:47:44.328Z,3.90
2023-03-18T08:50:13.737Z,4.00
2023-03-18T08:52:41.409Z,4.00
2023-03-18T08:55:09.857Z,3.80
2023-03-18T08:57:39.012Z,4.00
2023-03-18T09:00:07.663Z,3.90
2023-03-18T09:02:35.113Z,3.60
2023-03-18T09:05:03.144Z,3.90
2023-03-18T09:07:30.810Z,3.30
2023-03-18T09:09:58.010Z,3.60
2023-03-18T09:12:25.385Z,4.00
2023-03-18T09:14:52.966Z,3.60
2023-03-18T09:17:20.122Z,3.80
2023-03-18T09:19:48.343Z,3.90
2023-03-18T09:22:16.090Z,3.60
2023-03-18T09:24:43.628Z,3.70
2023-03-18T09:27:11.366Z,3.80
2023-03-18T09:29:39.300Z,3.70
2023-03-18T09:32:06.661Z,3.60
2023-03-18T09:34:34.053Z,4.00
2023-03-18T09:37:01.377Z,3.50
2023-03-18T09:39:28.635Z,4.00
2023-03-18T09:42:10.707Z,3.30
2023-03-18T09:44:39.878Z,3.40
2023-03-18T09:47:23.823Z,3.50
2023-03-18T09:50:11.629Z,3.70
2023-03-18T09:52:44.941Z,3.80
2023-03-18T09:55:25.090Z,3.70
2023-03-18T09:57:56.088Z,3.70
2023-03-18T10:00:29.567Z,3.70
2023-03-18T10:03:03.277Z,3.90
2023-03-18T10:05:35.957Z,3.40
2023-03-18T10:08:08.261Z,3.90
2023-03-18T10:10:40.869Z,3.50
2023-03-18T10:13:17.485Z,3.00
2023-03-18T10:15:49.165Z,3.10
2023-03-18T10:18:25.399Z,3.30
2023-03-18T10:21:04.540Z,3.50
2023-03-18T10:23:44.232Z,3.30
2023-03-18T10:26:17.639Z,3.30
2023-03-18T10:29:01.751Z,3.00
2023-03-18T10:31:43.345Z,3.00
2023-03-18T10:34:16.341Z,3.70
2023-03-18T10:36:51.749Z,3.70
2023-03-18T10:39:22.585Z,3.30
2023-03-18T10:41:54.961Z,4.00
2023-03-18T10:44:27.987Z,3.20
2023-03-18T10:47:03.568Z,3.80
2023-03-18T10:49:37.198Z,3.40
2023-03-18T10:52:11.720Z,3.30
2023-03-18T10:54:42.424Z,3.30
2023-03-18T10:57:14.434Z,3.40
2023-03-18T10:59:44.735Z,3.40
2023-03-18T11:02:19.806Z,3.40
2023-03-18T11:04:56.606Z,4.20
2023-03-18T11:07:27.720Z,3.90
2023-03-18T11:09:56.552Z,3.90
2023-03-18T11:12:27.268Z,3.60
2023-03-18T11:14:54.951Z,3.40
2023-03-18T11:17:28.145Z,3.80
2023-03-18T11:20:08.369Z,3.30
2023-03-18T11:22:36.777Z,3.90
2023-03-18T11:25:15.054Z,3.40
2023-03-18T11:27:43.841Z,3.80
2023-03-18T11:30:33.969Z,3.50
2023-03-18T11:33:07.418Z,4.30
2023-03-18T11:35:42.097Z,3.70
2023-03-18T11:38:15.452Z,3.80
2023-03-18T11:40:43.872Z,3.50
2023-03-18T11:43:20.242Z,3.80
2023-03-18T11:45:52.494Z,4.10
2023-03-18T11:48:25.217Z,3.20
2023-03-18T11:51:03.557Z,3.80
2023-03-18T11:53:41.300Z,3.70
2023-03-18T11:56:19.212Z,3.90
2023-03-18T11:59:29.240Z,3.50
2023-03-18T12:02:12.361Z,4.50
2023-03-18T12:04:54.932Z,4.10
2023-03-18T12:07:38.586Z,4.10
2023-03-18T12:10:15.356Z,3.70
2023-03-18T12:12:56.827Z,3.90
2023-03-18T12:15:34.719Z,3.80
2023-03-18T12:18:15.621Z,3.50
2023-03-18T12:20:52.303Z,3.40
2023-03-18T12:23:35.459Z,3.70
2023-03-18T12:26:08.498Z,4.00
2023-03-18T12:29:03.201Z,3.90
2023-03-18T12:31:47.286Z,4.10
2023-03-18T12:34:24.376Z,3.70
2023-03-18T12:37:06.695Z,4.30
2023-03-18T12:39:59.648Z,4.00
2023-03-18T12:42:40.191Z,4.20
2023-03-18T12:45:15.489Z,4.30
2023-03-18T12:47:48.111Z,3.80
2023-03-18T12:50:21.168Z,3.90
2023-03-18T12:52:54.457Z,3.80
2023-03-18T12:55:27.344Z,4.10
2023-03-18T12:57:57.666Z,3.80
2023-03-18T13:00:31.488Z,4.00
2023-03-18T13:03:13.609Z,3.60
2023-03-18T13:05:51.050Z,4.00
2023-03-18T13:08:50.905Z,4.10
2023-03-18T13:11:38.155Z,3.70
2023-03-18T13:14:12.480Z,4.00
2023-03-18T13:16:51.082Z,4.10
2023-03-18T13:19:19.667Z,3.70
2023-03-18T13:21:52.034Z,4.20
2023-03-18T13:24:45.094Z,3.90
2023-03-18T13:27:28.401Z,3.40
2023-03-18T13:30:02.376Z,3.90
2023-03-18T13:32:49.579Z,4.50
2023-03-18T13:35:50.767Z,3.90
2023-03-18T13:38:39.703Z,4.20
2023-03-18T13:41:38.629Z,3.80
2023-03-18T13:44:19.410Z,4.20
2023-03-18T13:46:59.348Z,3.60
2023-03-18T13:49:30.249Z,4.20
2023-03-18T13:52:01.196Z,3.90
2023-03-18T13:54:43.243Z,4.00
2023-03-18T13:57:37.164Z,4.00
2023-03-18T14:00:31.052Z,3.70
2023-03-18T14:03:23.337Z,4.00
2023-03-18T14:05:52.410Z,4.60
2023-03-18T14:08:51.446Z,4.00
2023-03-18T14:11:52.857Z,4.20
2023-03-18T14:14:59.859Z,5.50
2023-03-18T14:17:37.205Z,4.90
2023-03-18T14:20:26.000Z,4.50
2023-03-18T14:22:55.298Z,5.00
2023-03-18T14:25:45.418Z,4.40
2023-03-18T14:28:26.547Z,4.30
2023-03-18T14:31:13.928Z,4.30
2023-03-18T14:34:03.335Z,4.20
2023-03-18T14:37:16.313Z,4.40
2023-03-18T14:39:46.659Z,4.20
2023-03-18T14:42:28.903Z,4.90
2023-03-18T14:45:02.487Z,4.60
2023-03-18T14:47:41.490Z,4.70
2023-03-18T14:50:18.328Z,5.30
2023-03-18T14:55:21.027Z,4.70
2023-03-18T14:57:49.079Z,4.60
2023-03-18T15:00:20.664Z,5.10
2023-03-18T15:02:52.932Z,4.70
2023-03-18T15:05:22.932Z,5.40
2023-03-18T15:07:55.329Z,5.60
2023-03-18T15:10:28.058Z,5.10
2023-03-18T15:13:07.062Z,5.10
2023-03-18T15:15:35.169Z,5.30
2023-03-18T15:18:27.765Z,5.10
2023-03-18T15:21:01.375Z,4.40
2023-03-18T15:23:33.750Z,5.00
2023-03-18T15:26:01.250Z,5.60
2023-03-18T15:28:38.788Z,5.70
2023-03-18T15:31:06.465Z,5.60
2023-03-18T15:33:38.356Z,5.30
2023-03-18T15:36:15.197Z,5.60
2023-03-18T15:38:49.186Z,6.20
2023-03-18T15:41:22.638Z,6.70
2023-03-18T15:43:52.281Z,6.20
2023-03-18T15:46:24.769Z,6.00
2023-03-18T15:48:56.534Z,6.00
2023-03-18T15:51:30.168Z,6.60
2023-03-18T15:53:59.632Z,6.40
2023-03-18T15:56:31.408Z,6.40
2023-03-18T15:59:09.207Z,5.90
2023-03-18T16:01:37.533Z,5.30
2023-03-18T16:04:06.325Z,6.30
2023-03-18T16:06:34.620Z,5.70
2023-03-18T16:09:01.942Z,5.60
2023-03-18T16:11:39.439Z,6.30
2023-03-18T16:14:07.164Z,6.30
2023-03-18T16:16:37.349Z,6.60
2023-03-18T16:19:06.929Z,6.10
2023-03-18T16:21:42.942Z,6.50
2023-03-18T16:24:10.728Z,6.30
2023-03-18T16:26:38.216Z,6.50
2023-03-18T16:29:31.836Z,6.30
2023-03-18T16:32:12.690Z,6.50
2023-03-18T16:34:40.410Z,7.00
2023-03-18T16:37:24.041Z,7.00
2023-03-18T16:39:51.985Z,6.40
2023-03-18T16:42:22.021Z,7.10
2023-03-18T16:44:49.771Z,7.20
2023-03-18T16:47:23.428Z,6.20
2023-03-18T16:49:51.443Z,7.30
2023-03-18T16:52:19.402Z,7.20
2023-03-18T16:54:46.927Z,7.20
2023-03-18T16:57:20.026Z,6.90
2023-03-18T16:59:49.943Z,6.60
2023-03-18T17:02:32.393Z,7.10
2023-03-18T17:04:59.917Z,6.90
2023-03-18T17:07:27.619Z,7.50
2023-03-18T17:09:54.980Z,7.40
2023-03-18T17:12:23.054Z,7.30
2023-03-18T17:14:54.782Z,8.00
2023-03-18T17:17:28.283Z,7.90
2023-03-18T17:19:56.180Z,8.40
2023-03-18T17:22:25.891Z,8.50
2023-03-18T17:24:56.342Z,7.60
2023-03-18T17:27:27.128Z,7.40
2023-03-18T17:29:54.784Z,8.60
2023-03-18T17:32:22.495Z,8.80
2023-03-18T17:34:51.853Z,8.40
2023-03-18T17:37:23.701Z,9.90
2023-03-18T17:40:14.482Z,9.80
2023-03-18T17:42:45.816Z,8.00
2023-03-18T17:45:28.473Z,8.90
2023-03-18T17:48:12.640Z,8.60
2023-03-18T17:50:40.010Z,8.70
2023-03-18T17:53:08.097Z,8.80
2023-03-18T17:55:48.314Z,11.20
2023-03-18T17:58:18.978Z,11.00
2023-03-18T18:00:48.045Z,10.00
2023-03-18T18:03:24.329Z,9.10
2023-03-18T18:06:01.458Z,9.00
2023-03-18T18:08:32.948Z,7.70
2023-03-18T18:11:05.079Z,8.20
2023-03-18T18:13:55.038Z,8.70
2023-03-18T18:16:25.179Z,8.20
2023-03-18T18:18:52.593Z,9.00
2023-03-18T18:21:32.771Z,8.80
2023-03-18T18:24:00.629Z,8.80
2023-03-18T18:26:30.061Z,9.20
2023-03-18T18:28:57.574Z,8.90
2023-03-18T18:31:27.918Z,9.20
2023-03-18T18:33:55.980Z,8.80
2023-03-18T18:36:28.212Z,9.20
2023-03-18T18:38:58.311Z,9.80
2023-03-18T18:41:26.025Z,9.00
2023-03-18T18:43:56.733Z,9.50
2023-03-18T18:46:44.876Z,9.00
2023-03-18T18:49:32.492Z,9.50
2023-03-18T18:52:01.633Z,9.90
2023-03-18T18:54:39.673Z,10.60
2023-03-18T18:57:29.641Z,12.60
2023-03-18T19:00:22.025Z,13.40
2023-03-18T19:02:51.502Z,14.90
2023-03-18T19:05:26.517Z,11.30
2023-03-18T19:07:55.534Z,11.30
2023-03-18T19:10:22.896Z,11.30
2023-03-18T19:15:39.707Z,10.10
2023-03-18T19:18:09.992Z,10.20
2023-03-18T19:20:37.652Z,10.10
2023-03-18T19:23:06.561Z,10.40
2023-03-18T19:25:34.436Z,11.40
2023-03-18T19:28:17.842Z,11.60
2023-03-18T19:30:45.887Z,12.40
2023-03-18T19:33:33.355Z,13.00
2023-03-18T19:36:00.760Z,15.50
2023-03-18T19:38:28.320Z,15.70
2023-03-18T19:40:58.347Z,13.50
2023-03-18T19:43:27.797Z,13.20
2023-03-18T19:45:55.308Z,11.30
2023-03-18T19:48:25.982Z,11.20
2023-03-18T19:50:56.069Z,11.60
2023-03-18T19:53:29.539Z,12.00
2023-03-18T19:55:57.031Z,12.70
2023-03-18T19:58:27.947Z,11.10
2023-03-18T20:00:56.367Z,12.20
2023-03-18T20:03:26.407Z,11.80
2023-03-18T20:05:54.308Z,12.30
2023-03-18T20:08:25.412Z,12.30
2023-03-18T20:10:55.055Z,11.70
2023-03-18T20:13:22.518Z,13.90
2023-03-18T20:15:50.165Z,13.20
2023-03-18T20:18:18.966Z,14.20
2023-03-18T20:20:52.400Z,14.10
2023-03-18T20:23:23.941Z,13.20
2023-03-18T20:25:53.894Z,13.80
2023-03-18T20:28:27.191Z,13.10
2023-03-18T20:30:57.177Z,12.60
2023-03-18T20:33:25.053Z,12.50
2023-03-18T20:35:54.159Z,12.40
2023-03-18T20:38:27.709Z,13.00
2023-03-18T20:40:55.438Z,12.20
2023-03-18T20:43:28.531Z,13.20
2023-03-18T20:45:56.319Z,13.20
2023-03-18T20:48:24.159Z,13.20
2023-03-18T20:50:52.466Z,13.50
2023-03-18T20:53:29.233Z,13.70
2023-03-18T20:55:57.118Z,13.80
2023-03-18T20:58:26.373Z,12.70
2023-03-18T21:00:54.623Z,12.90
2023-03-18T21:03:27.396Z,12.90
2023-03-18T21:05:56.843Z,12.30
2023-03-18T21:08:25.125Z,14.40
2023-03-18T21:10:53.698Z,13.70
2023-03-18T21:13:28.252Z,14.20
2023-03-18T21:15:55.733Z,13.80
2023-03-18T21:18:22.911Z,13.20
2023-03-18T21:21:02.524Z,13.00
2023-03-18T21:23:32.885Z,12.30
2023-03-18T21:26:00.206Z,12.90
2023-03-18T21:28:31.077Z,12.50
2023-03-18T21:30:59.324Z,13.00
2023-03-18T21:33:29.541Z,13.00
2023-03-18T21:35:57.927Z,13.20
2023-03-18T21:38:25.780Z,13.80
2023-03-18T21:40:55.683Z,13.80
2023-03-18T21:43:43.405Z,13.70
2023-03-18T21:46:24.695Z,12.80
2023-03-18T21:48:56.062Z,13.80
2023-03-18T21:51:38.114Z,13.60
2023-03-18T21:54:07.251Z,13.40
2023-03-18T21:56:34.790Z,13.70
2023-03-18T21:59:01.902Z,13.70
2023-03-18T22:01:32.548Z,14.00
2023-03-18T22:04:00.363Z,13.90
2023-03-18T22:06:27.592Z,15.10
2023-03-18T22:08:57.023Z,14.30
2023-03-18T22:11:24.889Z,13.40
2023-03-18T22:13:52.421Z,15.10
2023-03-18T22:16:20.832Z,13.80
2023-03-18T22:18:51.432Z,14.50
2023-03-18T22:21:24.607Z,14.30
2023-03-18T22:23:52.085Z,14.00
2023-03-18T22:26:20.589Z,14.10
2023-03-18T22:28:49.849Z,13.90
2023-03-18T22:31:21.568Z,14.60
2023-03-18T22:33:49.092Z,14.40
2023-03-18T22:36:21.840Z,15.70
2023-03-18T22:39:02.024Z,15.90
2023-03-18T22:41:30.621Z,14.50
2023-03-18T22:44:00.290Z,14.40
2023-03-18T22:46:30.049Z,14.80
2023-03-18T22:48:58.571Z,14.80
2023-03-18T22:51:28.998Z,15.40
2023-03-18T22:53:56.922Z,15.50
2023-03-18T22:56:27.264Z,15.10
2023-03-18T22:58:54.858Z,15.30
2023-03-18T23:01:30.951Z,15.30
2023-03-18T23:03:58.373Z,15.50
2023-03-18T23:06:27.311Z,15.00
2023-03-18T23:08:54.919Z,15.00
2023-03-18T23:11:22.280Z,14.80
2023-03-18T23:13:52.372Z,15.50
2023-03-18T23:16:21.755Z,15.00
2023-03-18T23:18:49.901Z,16.10
2023-03-18T23:21:22.759Z,15.90
2023-03-18T23:23:52.733Z,16.00
2023-03-18T23:26:20.761Z,15.80
2023-03-18T23:28:49.267Z,15.60
2023-03-18T23:31:17.873Z,16.50
2023-03-18T23:33:45.706Z,16.20
2023-03-18T23:36:13.672Z,16.40
2023-03-18T23:38:41.927Z,15.80
2023-03-18T23:41:09.814Z,16.40
2023-03-18T23:43:40.293Z,15.50
2023-03-18T23:46:10.718Z,16.30
2023-03-18T23:48:38.252Z,15.90
2023-03-18T23:51:05.806Z,16.30
2023-03-18T23:53:35.621Z,16.80
2023-03-18T23:56:02.861Z,16.00
2023-03-18T23:58:33.088Z,16.90
